sensor_id;sensor_type;location;lat;lon;timestamp;temperature;humidity
14737;DHT22;7459;53.590;10.062;2022-09-09T04:54:31;15.10;99.90
14737;DHT22;7459;53.590;10.062;2022-09-09T04:56:57;15.10;99.90
14737;DHT22;7459;53.590;10.062;2022-09-09T04:59:23;15.10;99.90
14737;DHT22;7459;53.590;10.062;2022-09-09T05:01:48;15.20;99.90
14737;DHT22;7459;53.590;10.062;2022-09-09T05:04:15;15.20;99.90
14737;DHT22;7459;53.590;10.062;2022-09-09T05:06:41;15.30;99.90
14737;DHT22;7459;53.590;10.062;2022-09-09T05:09:08;15.30;99.90
14737;DHT22;7459;53.590;10.062;2022-09-09T05:11:34;15.30;99.90
14737;DHT22;7459;53.590;10.062;2022-09-09T05:14:03;15.30;99.90
14737;DHT22;7459;53.590;10.062;2022-09-09T05:16:30;15.30;99.90
14737;DHT22;7459;53.590;10.062;2022-09-09T05:18:56;15.30;99.90
14737;DHT22;7459;53.590;10.062;2022-09-09T05:21:23;15.30;99.90
14737;DHT22;7459;53.590;10.062;2022-09-09T05:23:51;15.40;99.90
14737;DHT22;7459;53.590;10.062;2022-09-09T05:26:20;15.30;99.90
14737;DHT22;7459;53.590;10.062;2022-09-09T05:28:47;15.30;99.90
14737;DHT22;7459;53.590;10.062;2022-09-09T05:31:15;15.40;99.90
14737;DHT22;7459;53.590;10.062;2022-09-09T05:33:43;15.40;99.90
14737;DHT22;7459;53.590;10.062;2022-09-09T05:36:17;15.40;99.90
14737;DHT22;7459;53.590;10.062;2022-09-09T05:38:44;15.50;99.90
14737;DHT22;7459;53.590;10.062;2022-09-09T05:41:11;15.50;99.90
14737;DHT22;7459;53.590;10.062;2022-09-09T05:43:38;15.50;99.90
14737;DHT22;7459;53.590;10.062;2022-09-09T05:46:06;15.50;99.90
14737;DHT22;7459;53.590;10.062;2022-09-09T05:48:38;15.50;99.90
14737;DHT22;7459;53.590;10.062;2022-09-09T05:51:06;15.50;99.90
14737;DHT22;7459;53.590;10.062;2022-09-09T05:53:34;15.60;99.90
14737;DHT22;7459;53.590;10.062;2022-09-09T05:56:08;15.50;99.90
14737;DHT22;7459;53.590;10.062;2022-09-09T05:58:40;15.60;99.90
14737;DHT22;7459;53.590;10.062;2022-09-09T06:01:11;15.50;99.90
14737;DHT22;7459;53.590;10.062;2022-09-09T06:03:43;15.60;99.90
14737;DHT22;7459;53.590;10.062;2022-09-09T06:06:12;15.60;99.90
14737;DHT22;7459;53.590;10.062;2022-09-09T06:08:41;15.60;99.90
14737;DHT22;7459;53.590;10.062;2022-09-09T06:11:11;15.60;99.90
14737;DHT22;7459;53.590;10.062;2022-09-09T06:13:39;15.70;99.90
14737;DHT22;7459;53.590;10.062;2022-09-09T06:16:07;15.80;99.90
14737;DHT22;7459;53.590;10.062;2022-09-09T06:18:34;15.80;99.90
14737;DHT22;7459;53.590;10.062;2022-09-09T06:21:02;15.70;99.90
14737;DHT22;7459;53.590;10.062;2022-09-09T06:23:29;15.80;99.90
14737;DHT22;7459;53.590;10.062;2022-09-09T06:26:07;15.80;99.90
14737;DHT22;7459;53.590;10.062;2022-09-09T06:28:46;15.80;99.90
14737;DHT22;7459;53.590;10.062;2022-09-09T06:31:14;15.70;99.90
14737;DHT22;7459;53.590;10.062;2022-09-09T06:33:47;15.80;99.90
14737;DHT22;7459;53.590;10.062;2022-09-09T06:36:26;15.80;99.90
14737;DHT22;7459;53.590;10.062;2022-09-09T06:38:51;15.80;99.90
14737;DHT22;7459;53.590;10.062;2022-09-09T06:41:19;15.80;99.90
14737;DHT22;7459;53.590;10.062;2022-09-09T06:43:46;15.80;99.90
14737;DHT22;7459;53.590;10.062;2022-09-09T06:48:52;15.80;99.90
14737;DHT22;7459;53.590;10.062;2022-09-09T06:51:21;15.80;99.90
14737;DHT22;7459;53.590;10.062;2022-09-09T06:53:50;15.80;99.90
14737;DHT22;7459;53.590;10.062;2022-09-09T06:56:21;15.80;99.90
14737;DHT22;7459;53.590;10.062;2022-09-09T06:58:52;15.80;99.90
14737;DHT22;7459;53.590;10.062;2022-09-09T07:01:26;15.80;99.90
14737;DHT22;7459;53.590;10.062;2022-09-09T07:03:55;15.80;99.90
14737;DHT22;7459;53.590;10.062;2022-09-09T07:06:25;15.80;99.90
14737;DHT22;7459;53.590;10.062;2022-09-09T07:09:15;15.90;99.90
14737;DHT22;7459;53.590;10.062;2022-09-09T07:11:44;15.90;99.90
14737;DHT22;7459;53.590;10.062;2022-09-09T07:14:12;15.90;99.90
14737;DHT22;7459;53.590;10.062;2022-09-09T07:16:40;15.90;99.90
14737;DHT22;7459;53.590;10.062;2022-09-09T07:19:07;16.00;99.90
14737;DHT22;7459;53.590;10.062;2022-09-09T07:21:33;16.10;99.90
14737;DHT22;7459;53.590;10.062;2022-09-09T07:23:59;16.20;99.90
14737;DHT22;7459;53.590;10.062;2022-09-09T07:26:27;16.20;99.90
14737;DHT22;7459;53.590;10.062;2022-09-09T07:28:55;16.30;99.90
14737;DHT22;7459;53.590;10.062;2022-09-09T07:31:29;16.30;99.90
14737;DHT22;7459;53.590;10.062;2022-09-09T07:33:57;16.30;99.90
14737;DHT22;7459;53.590;10.062;2022-09-09T07:36:27;16.30;99.90
14737;DHT22;7459;53.590;10.062;2022-09-09T07:39:00;16.30;99.90
14737;DHT22;7459;53.590;10.062;2022-09-09T07:41:39;16.30;99.90
14737;DHT22;7459;53.590;10.062;2022-09-09T07:44:12;16.40;99.90
14737;DHT22;7459;53.590;10.062;2022-09-09T07:46:46;16.40;99.90
14737;DHT22;7459;53.590;10.062;2022-09-09T07:49:12;16.40;99.90
14737;DHT22;7459;53.590;10.062;2022-09-09T07:51:41;16.50;99.90
14737;DHT22;7459;53.590;10.062;2022-09-09T07:54:11;16.50;99.90
14737;DHT22;7459;53.590;10.062;2022-09-09T07:56:39;16.50;99.90
14737;DHT22;7459;53.590;10.062;2022-09-09T07:59:05;16.50;99.90
14737;DHT22;7459;53.590;10.062;2022-09-09T08:01:37;16.50;99.90
14737;DHT22;7459;53.590;10.062;2022-09-09T08:04:18;16.60;99.90
14737;DHT22;7459;53.590;10.062;2022-09-09T08:06:47;16.60;99.90
14737;DHT22;7459;53.590;10.062;2022-09-09T08:09:15;16.60;99.90
14737;DHT22;7459;53.590;10.062;2022-09-09T08:11:41;16.50;99.90
14737;DHT22;7459;53.590;10.062;2022-09-09T08:14:08;16.50;99.90
14737;DHT22;7459;53.590;10.062;2022-09-09T08:16:38;16.60;99.90
14737;DHT22;7459;53.590;10.062;2022-09-09T08:19:06;16.60;99.90
14737;DHT22;7459;53.590;10.062;2022-09-09T08:21:33;16.60;99.90
14737;DHT22;7459;53.590;10.062;2022-09-09T08:24:02;16.60;99.90
14737;DHT22;7459;53.590;10.062;2022-09-09T08:26:33;16.60;99.90
14737;DHT22;7459;53.590;10.062;2022-09-09T08:29:01;16.70;99.90
14737;DHT22;7459;53.590;10.062;2022-09-09T08:31:30;16.70;99.90
14737;DHT22;7459;53.590;10.062;2022-09-09T08:33:59;16.80;99.90
14737;DHT22;7459;53.590;10.062;2022-09-09T08:36:27;16.80;99.90
14737;DHT22;7459;53.590;10.062;2022-09-09T08:38:56;16.80;99.90
14737;DHT22;7459;53.590;10.062;2022-09-09T08:47:40;16.90;99.90
14737;DHT22;7459;53.590;10.062;2022-09-09T08:53:02;16.90;99.90
14737;DHT22;7459;53.590;10.062;2022-09-09T08:55:50;16.90;99.90
14737;DHT22;7459;53.590;10.062;2022-09-09T08:58:30;16.90;99.90
14737;DHT22;7459;53.590;10.062;2022-09-09T09:04:14;16.90;99.90
14737;DHT22;7459;53.590;10.062;2022-09-09T09:06:55;16.90;99.90
14737;DHT22;7459;53.590;10.062;2022-09-09T09:09:51;16.90;99.90
14737;DHT22;7459;53.590;10.062;2022-09-09T09:12:26;16.90;99.90
14737;DHT22;7459;53.590;10.062;2022-09-09T09:14:54;16.90;99.90
14737;DHT22;7459;53.590;10.062;2022-09-09T09:17:26;16.90;99.90
14737;DHT22;7459;53.590;10.062;2022-09-09T09:19:54;17.00;99.90
14737;DHT22;7459;53.590;10.062;2022-09-09T09:22:50;17.00;99.90
14737;DHT22;7459;53.590;10.062;2022-09-09T09:31:03;17.10;99.90
14737;DHT22;7459;53.590;10.062;2022-09-09T09:33:50;17.10;99.90
14737;DHT22;7459;53.590;10.062;2022-09-09T09:36:35;17.20;99.90
14737;DHT22;7459;53.590;10.062;2022-09-09T09:39:26;17.20;99.90
14737;DHT22;7459;53.590;10.062;2022-09-09T09:41:53;17.20;99.90
14737;DHT22;7459;53.590;10.062;2022-09-09T09:44:28;17.20;99.90
14737;DHT22;7459;53.590;10.062;2022-09-09T09:47:18;17.20;99.90
14737;DHT22;7459;53.590;10.062;2022-09-09T09:49:56;17.20;99.90
14737;DHT22;7459;53.590;10.062;2022-09-09T09:52:31;17.20;99.90
14737;DHT22;7459;53.590;10.062;2022-09-09T09:55:03;17.30;99.90
14737;DHT22;7459;53.590;10.062;2022-09-09T09:57:31;17.30;99.90
14737;DHT22;7459;53.590;10.062;2022-09-09T10:00:04;17.30;99.90
14737;DHT22;7459;53.590;10.062;2022-09-09T10:02:40;17.30;99.90
14737;DHT22;7459;53.590;10.062;2022-09-09T10:05:23;17.40;99.90
14737;DHT22;7459;53.590;10.062;2022-09-09T10:08:14;17.40;99.90
14737;DHT22;7459;53.590;10.062;2022-09-09T10:11:14;17.50;99.90
14737;DHT22;7459;53.590;10.062;2022-09-09T10:14:00;17.60;99.90
14737;DHT22;7459;53.590;10.062;2022-09-09T10:16:49;17.60;99.90
14737;DHT22;7459;53.590;10.062;2022-09-09T10:19:36;17.70;99.90
14737;DHT22;7459;53.590;10.062;2022-09-09T10:22:31;17.70;99.90
14737;DHT22;7459;53.590;10.062;2022-09-09T10:28:00;17.80;99.90
14737;DHT22;7459;53.590;10.062;2022-09-09T10:36:31;17.70;99.90
14737;DHT22;7459;53.590;10.062;2022-09-09T10:39:24;17.70;99.90
14737;DHT22;7459;53.590;10.062;2022-09-09T10:42:14;17.70;99.90
14737;DHT22;7459;53.590;10.062;2022-09-09T10:48:14;17.80;99.90
14737;DHT22;7459;53.590;10.062;2022-09-09T10:51:05;17.90;99.90
14737;DHT22;7459;53.590;10.062;2022-09-09T10:54:06;18.00;99.90
14737;DHT22;7459;53.590;10.062;2022-09-09T10:56:26;18.10;99.90
14737;DHT22;7459;53.590;10.062;2022-09-09T10:59:17;18.10;99.90
14737;DHT22;7459;53.590;10.062;2022-09-09T11:02:06;18.10;99.90
14737;DHT22;7459;53.590;10.062;2022-09-09T11:05:39;18.20;99.90
14737;DHT22;7459;53.590;10.062;2022-09-09T11:08:20;18.20;99.90
14737;DHT22;7459;53.590;10.062;2022-09-09T11:21:52;18.30;99.90
14737;DHT22;7459;53.590;10.062;2022-09-09T11:24:40;18.40;99.90
14737;DHT22;7459;53.590;10.062;2022-09-09T11:36:30;18.50;99.90
14737;DHT22;7459;53.590;10.062;2022-09-09T11:44:37;18.50;99.90
14737;DHT22;7459;53.590;10.062;2022-09-09T11:47:03;18.50;99.90
14737;DHT22;7459;53.590;10.062;2022-09-09T11:54:49;18.60;99.90
14737;DHT22;7459;53.590;10.062;2022-09-09T11:57:31;18.60;99.90
14737;DHT22;7459;53.590;10.062;2022-09-09T11:59:59;18.60;99.90
14737;DHT22;7459;53.590;10.062;2022-09-09T12:02:27;18.60;99.90
14737;DHT22;7459;53.590;10.062;2022-09-09T12:05:07;18.60;99.90
14737;DHT22;7459;53.590;10.062;2022-09-09T12:07:38;18.60;99.90
14737;DHT22;7459;53.590;10.062;2022-09-09T12:12:34;18.60;99.90
14737;DHT22;7459;53.590;10.062;2022-09-09T12:17:53;18.80;99.90
14737;DHT22;7459;53.590;10.062;2022-09-09T12:20:23;18.80;99.90
14737;DHT22;7459;53.590;10.062;2022-09-09T12:23:08;18.80;99.90
14737;DHT22;7459;53.590;10.062;2022-09-09T12:29:03;18.80;99.90
14737;DHT22;7459;53.590;10.062;2022-09-09T12:31:51;18.70;99.90
14737;DHT22;7459;53.590;10.062;2022-09-09T12:34:39;18.60;99.90
14737;DHT22;7459;53.590;10.062;2022-09-09T12:37:14;18.60;99.90
14737;DHT22;7459;53.590;10.062;2022-09-09T12:39:56;18.60;99.90
14737;DHT22;7459;53.590;10.062;2022-09-09T12:42:24;18.60;99.90
14737;DHT22;7459;53.590;10.062;2022-09-09T12:45:02;18.60;99.90
14737;DHT22;7459;53.590;10.062;2022-09-09T12:50:19;18.60;99.90
14737;DHT22;7459;53.590;10.062;2022-09-09T12:52:47;18.60;99.90
14737;DHT22;7459;53.590;10.062;2022-09-09T12:55:21;18.50;99.90
14737;DHT22;7459;53.590;10.062;2022-09-09T12:58:00;18.60;99.90
14737;DHT22;7459;53.590;10.062;2022-09-09T13:00:30;18.60;99.90
14737;DHT22;7459;53.590;10.062;2022-09-09T13:02:58;18.60;99.90
14737;DHT22;7459;53.590;10.062;2022-09-09T13:08:06;18.50;99.90
14737;DHT22;7459;53.590;10.062;2022-09-09T13:10:57;18.50;99.90
14737;DHT22;7459;53.590;10.062;2022-09-09T13:13:52;18.50;99.90
14737;DHT22;7459;53.590;10.062;2022-09-09T13:16:34;18.50;99.90
14737;DHT22;7459;53.590;10.062;2022-09-09T13:19:07;18.40;99.90
14737;DHT22;7459;53.590;10.062;2022-09-09T13:21:39;18.40;99.90
14737;DHT22;7459;53.590;10.062;2022-09-09T13:24:29;18.40;99.90
14737;DHT22;7459;53.590;10.062;2022-09-09T13:27:02;18.40;99.90
14737;DHT22;7459;53.590;10.062;2022-09-09T13:29:31;18.40;99.90
14737;DHT22;7459;53.590;10.062;2022-09-09T13:32:05;18.40;99.90
14737;DHT22;7459;53.590;10.062;2022-09-09T13:34:51;18.40;99.90
14737;DHT22;7459;53.590;10.062;2022-09-09T13:37:35;18.30;99.90
14737;DHT22;7459;53.590;10.062;2022-09-09T13:40:03;18.30;99.90
14737;DHT22;7459;53.590;10.062;2022-09-09T13:42:33;18.40;99.90
14737;DHT22;7459;53.590;10.062;2022-09-09T13:45:01;18.30;99.90
14737;DHT22;7459;53.590;10.062;2022-09-09T13:47:32;18.40;99.90
14737;DHT22;7459;53.590;10.062;2022-09-09T13:50:30;18.40;99.90
14737;DHT22;7459;53.590;10.062;2022-09-09T13:52:58;18.30;99.90
14737;DHT22;7459;53.590;10.062;2022-09-09T13:55:25;18.20;99.90
14737;DHT22;7459;53.590;10.062;2022-09-09T13:57:57;18.20;99.90
14737;DHT22;7459;53.590;10.062;2022-09-09T14:00:26;18.10;99.90
14737;DHT22;7459;53.590;10.062;2022-09-09T14:02:53;18.00;99.90
14737;DHT22;7459;53.590;10.062;2022-09-09T14:05:20;17.90;99.90
14737;DHT22;7459;53.590;10.062;2022-09-09T14:07:48;17.90;99.90
14737;DHT22;7459;53.590;10.062;2022-09-09T14:10:14;17.80;99.90
14737;DHT22;7459;53.590;10.062;2022-09-09T14:12:40;17.80;99.90
14737;DHT22;7459;53.590;10.062;2022-09-09T14:15:09;17.70;99.90
14737;DHT22;7459;53.590;10.062;2022-09-09T14:17:35;17.70;99.90
14737;DHT22;7459;53.590;10.062;2022-09-09T14:20:05;17.70;99.90
14737;DHT22;7459;53.590;10.062;2022-09-09T14:22:36;17.70;99.90
14737;DHT22;7459;53.590;10.062;2022-09-09T14:25:04;17.70;99.90
14737;DHT22;7459;53.590;10.062;2022-09-09T14:27:31;17.70;99.90
14737;DHT22;7459;53.590;10.062;2022-09-09T14:29:58;17.60;99.90
14737;DHT22;7459;53.590;10.062;2022-09-09T14:32:25;17.70;99.90
14737;DHT22;7459;53.590;10.062;2022-09-09T14:34:52;17.70;99.90
14737;DHT22;7459;53.590;10.062;2022-09-09T14:37:18;17.70;99.90
14737;DHT22;7459;53.590;10.062;2022-09-09T14:39:44;17.70;99.90
14737;DHT22;7459;53.590;10.062;2022-09-09T14:42:12;17.70;99.90
14737;DHT22;7459;53.590;10.062;2022-09-09T14:44:38;17.70;99.90
14737;DHT22;7459;53.590;10.062;2022-09-09T14:47:05;17.70;99.90
14737;DHT22;7459;53.590;10.062;2022-09-09T14:49:33;17.70;99.90
14737;DHT22;7459;53.590;10.062;2022-09-09T14:51:59;17.70;99.90
14737;DHT22;7459;53.590;10.062;2022-09-09T14:54:25;17.70;99.90
14737;DHT22;7459;53.590;10.062;2022-09-09T14:56:51;17.70;99.90
14737;DHT22;7459;53.590;10.062;2022-09-09T14:59:17;17.70;99.90
14737;DHT22;7459;53.590;10.062;2022-09-09T15:01:42;17.60;99.90
14737;DHT22;7459;53.590;10.062;2022-09-09T15:04:12;17.70;99.90
14737;DHT22;7459;53.590;10.062;2022-09-09T15:06:39;17.60;99.90
14737;DHT22;7459;53.590;10.062;2022-09-09T15:09:06;17.60;99.90
14737;DHT22;7459;53.590;10.062;2022-09-09T15:11:36;17.60;99.90
14737;DHT22;7459;53.590;10.062;2022-09-09T15:14:04;17.60;99.90
14737;DHT22;7459;53.590;10.062;2022-09-09T15:16:33;17.60;99.90
14737;DHT22;7459;53.590;10.062;2022-09-09T15:19:00;17.60;99.90
14737;DHT22;7459;53.590;10.062;2022-09-09T15:21:30;17.60;99.90
14737;DHT22;7459;53.590;10.062;2022-09-09T15:23:57;17.60;99.90
14737;DHT22;7459;53.590;10.062;2022-09-09T15:26:23;17.60;99.90
14737;DHT22;7459;53.590;10.062;2022-09-09T15:28:50;17.60;99.90
14737;DHT22;7459;53.590;10.062;2022-09-09T15:31:18;17.60;99.90
14737;DHT22;7459;53.590;10.062;2022-09-09T15:33:53;17.60;99.90
14737;DHT22;7459;53.590;10.062;2022-09-09T15:36:27;17.60;99.90
14737;DHT22;7459;53.590;10.062;2022-09-09T15:38:58;17.50;99.90
14737;DHT22;7459;53.590;10.062;2022-09-09T15:41:25;17.50;99.90
14737;DHT22;7459;53.590;10.062;2022-09-09T15:43:52;17.50;99.90
14737;DHT22;7459;53.590;10.062;2022-09-09T15:46:24;17.50;99.90
14737;DHT22;7459;53.590;10.062;2022-09-09T15:49:13;17.50;99.90
14737;DHT22;7459;53.590;10.062;2022-09-09T15:51:42;17.40;99.90
14737;DHT22;7459;53.590;10.062;2022-09-09T15:54:12;17.40;99.90
14737;DHT22;7459;53.590;10.062;2022-09-09T15:56:39;17.50;99.90
14737;DHT22;7459;53.590;10.062;2022-09-09T15:59:05;17.50;99.90
14737;DHT22;7459;53.590;10.062;2022-09-09T16:01:32;17.50;99.90
14737;DHT22;7459;53.590;10.062;2022-09-09T16:03:58;17.50;99.90
14737;DHT22;7459;53.590;10.062;2022-09-09T16:06:26;17.50;99.90
14737;DHT22;7459;53.590;10.062;2022-09-09T16:08:54;17.50;99.90
14737;DHT22;7459;53.590;10.062;2022-09-09T16:11:33;17.50;99.90
14737;DHT22;7459;53.590;10.062;2022-09-09T16:14:01;17.50;99.90
14737;DHT22;7459;53.590;10.062;2022-09-09T16:16:28;17.50;99.90
14737;DHT22;7459;53.590;10.062;2022-09-09T16:18:59;17.60;99.90
14737;DHT22;7459;53.590;10.062;2022-09-09T16:21:37;17.60;99.90
14737;DHT22;7459;53.590;10.062;2022-09-09T16:24:10;17.70;99.90
14737;DHT22;7459;53.590;10.062;2022-09-09T16:26:39;17.70;99.90
14737;DHT22;7459;53.590;10.062;2022-09-09T16:29:06;17.80;99.90
14737;DHT22;7459;53.590;10.062;2022-09-09T16:31:32;17.80;99.90
14737;DHT22;7459;53.590;10.062;2022-09-09T16:33:58;17.80;99.90
14737;DHT22;7459;53.590;10.062;2022-09-09T16:36:27;17.80;99.90
14737;DHT22;7459;53.590;10.062;2022-09-09T16:39:01;17.80;99.90
14737;DHT22;7459;53.590;10.062;2022-09-09T16:41:30;17.80;99.90
14737;DHT22;7459;53.590;10.062;2022-09-09T16:44:01;17.80;99.90
14737;DHT22;7459;53.590;10.062;2022-09-09T16:46:30;17.80;99.90
14737;DHT22;7459;53.590;10.062;2022-09-09T16:48:57;17.70;99.90
14737;DHT22;7459;53.590;10.062;2022-09-09T16:51:30;17.80;99.90
14737;DHT22;7459;53.590;10.062;2022-09-09T16:54:00;17.70;99.90
14737;DHT22;7459;53.590;10.062;2022-09-09T16:56:30;17.70;99.90
14737;DHT22;7459;53.590;10.062;2022-09-09T16:58:59;17.70;99.90
14737;DHT22;7459;53.590;10.062;2022-09-09T17:01:28;17.70;99.90
14737;DHT22;7459;53.590;10.062;2022-09-09T17:03:56;17.70;99.90
14737;DHT22;7459;53.590;10.062;2022-09-09T17:06:22;17.70;99.90
14737;DHT22;7459;53.590;10.062;2022-09-09T17:08:54;17.70;99.90
14737;DHT22;7459;53.590;10.062;2022-09-09T17:11:20;17.60;99.90
14737;DHT22;7459;53.590;10.062;2022-09-09T17:13:47;17.60;99.90
14737;DHT22;7459;53.590;10.062;2022-09-09T17:16:15;17.60;99.90
14737;DHT22;7459;53.590;10.062;2022-09-09T17:18:42;17.60;99.90
14737;DHT22;7459;53.590;10.062;2022-09-09T17:21:11;17.50;99.90
14737;DHT22;7459;53.590;10.062;2022-09-09T17:23:40;17.50;99.90
14737;DHT22;7459;53.590;10.062;2022-09-09T17:26:08;17.50;99.90
14737;DHT22;7459;53.590;10.062;2022-09-09T17:28:36;17.50;99.90
14737;DHT22;7459;53.590;10.062;2022-09-09T17:31:05;17.50;99.90
14737;DHT22;7459;53.590;10.062;2022-09-09T17:33:34;17.40;99.90
14737;DHT22;7459;53.590;10.062;2022-09-09T17:38:35;17.40;99.90
14737;DHT22;7459;53.590;10.062;2022-09-09T17:41:02;17.30;99.90
14737;DHT22;7459;53.590;10.062;2022-09-09T17:43:29;17.30;99.90
14737;DHT22;7459;53.590;10.062;2022-09-09T17:45:54;17.30;99.90
14737;DHT22;7459;53.590;10.062;2022-09-09T17:48:20;17.30;99.90
14737;DHT22;7459;53.590;10.062;2022-09-09T17:50:46;17.20;99.90
14737;DHT22;7459;53.590;10.062;2022-09-09T17:53:12;17.20;99.90
14737;DHT22;7459;53.590;10.062;2022-09-09T17:55:37;17.20;99.90
14737;DHT22;7459;53.590;10.062;2022-09-09T17:58:03;17.20;99.90
14737;DHT22;7459;53.590;10.062;2022-09-09T18:00:29;17.20;99.90
14737;DHT22;7459;53.590;10.062;2022-09-09T18:02:55;17.20;99.90
14737;DHT22;7459;53.590;10.062;2022-09-09T18:05:21;17.10;99.90
14737;DHT22;7459;53.590;10.062;2022-09-09T18:07:47;17.10;99.90
14737;DHT22;7459;53.590;10.062;2022-09-09T18:10:13;17.10;99.90
14737;DHT22;7459;53.590;10.062;2022-09-09T18:12:39;17.10;99.90
14737;DHT22;7459;53.590;10.062;2022-09-09T18:15:05;17.10;99.90
14737;DHT22;7459;53.590;10.062;2022-09-09T18:17:31;17.10;99.90
14737;DHT22;7459;53.590;10.062;2022-09-09T18:19:57;17.00;99.90
14737;DHT22;7459;53.590;10.062;2022-09-09T18:22:22;17.00;99.90
14737;DHT22;7459;53.590;10.062;2022-09-09T18:24:48;17.00;99.90
14737;DHT22;7459;53.590;10.062;2022-09-09T18:27:14;17.00;99.90
14737;DHT22;7459;53.590;10.062;2022-09-09T18:29:40;17.00;99.90
14737;DHT22;7459;53.590;10.062;2022-09-09T18:32:06;16.90;99.90
14737;DHT22;7459;53.590;10.062;2022-09-09T18:34:32;16.90;99.90
14737;DHT22;7459;53.590;10.062;2022-09-09T18:36:58;16.90;99.90
14737;DHT22;7459;53.590;10.062;2022-09-09T18:39:27;16.90;99.90
14737;DHT22;7459;53.590;10.062;2022-09-09T18:41:58;16.80;99.90
14737;DHT22;7459;53.590;10.062;2022-09-09T18:44:27;16.80;99.90
14737;DHT22;7459;53.590;10.062;2022-09-09T18:46:54;16.80;99.90
14737;DHT22;7459;53.590;10.062;2022-09-09T18:49:22;16.80;99.90
14737;DHT22;7459;53.590;10.062;2022-09-09T18:51:48;16.80;99.90
14737;DHT22;7459;53.590;10.062;2022-09-09T18:54:20;16.80;99.90
14737;DHT22;7459;53.590;10.062;2022-09-09T18:56:48;16.80;99.90
14737;DHT22;7459;53.590;10.062;2022-09-09T18:59:17;16.80;99.90
14737;DHT22;7459;53.590;10.062;2022-09-09T19:01:44;16.80;99.90
14737;DHT22;7459;53.590;10.062;2022-09-09T19:04:14;16.80;99.90
14737;DHT22;7459;53.590;10.062;2022-09-09T19:06:45;16.80;99.90
14737;DHT22;7459;53.590;10.062;2022-09-09T19:09:14;16.80;99.90
14737;DHT22;7459;53.590;10.062;2022-09-09T19:11:44;16.80;99.90
14737;DHT22;7459;53.590;10.062;2022-09-09T19:14:12;16.80;99.90
14737;DHT22;7459;53.590;10.062;2022-09-09T19:16:39;16.80;99.90
14737;DHT22;7459;53.590;10.062;2022-09-09T19:19:13;16.80;99.90
14737;DHT22;7459;53.590;10.062;2022-09-09T19:21:41;16.80;99.90
14737;DHT22;7459;53.590;10.062;2022-09-09T19:24:16;16.90;99.90
14737;DHT22;7459;53.590;10.062;2022-09-09T19:26:49;16.90;99.90
14737;DHT22;7459;53.590;10.062;2022-09-09T19:29:19;16.90;99.90
14737;DHT22;7459;53.590;10.062;2022-09-09T19:31:49;16.90;99.90
14737;DHT22;7459;53.590;10.062;2022-09-09T19:34:16;16.90;99.90
14737;DHT22;7459;53.590;10.062;2022-09-09T19:36:42;16.90;99.90
14737;DHT22;7459;53.590;10.062;2022-09-09T19:39:09;16.90;99.90
14737;DHT22;7459;53.590;10.062;2022-09-09T19:41:36;16.90;99.90
14737;DHT22;7459;53.590;10.062;2022-09-09T19:44:04;16.80;99.90
14737;DHT22;7459;53.590;10.062;2022-09-09T19:46:35;16.80;99.90
14737;DHT22;7459;53.590;10.062;2022-09-09T19:49:03;16.80;99.90
14737;DHT22;7459;53.590;10.062;2022-09-09T19:51:31;16.80;99.90
14737;DHT22;7459;53.590;10.062;2022-09-09T19:56:34;16.80;99.90
14737;DHT22;7459;53.590;10.062;2022-09-09T19:59:02;16.80;99.90
14737;DHT22;7459;53.590;10.062;2022-09-09T20:01:38;16.80;99.90
14737;DHT22;7459;53.590;10.062;2022-09-09T20:04:08;16.80;99.90
14737;DHT22;7459;53.590;10.062;2022-09-09T20:06:35;16.80;99.90
14737;DHT22;7459;53.590;10.062;2022-09-09T20:09:03;16.70;99.90
14737;DHT22;7459;53.590;10.062;2022-09-09T20:11:30;16.70;99.90
14737;DHT22;7459;53.590;10.062;2022-09-09T20:13:57;16.70;99.90
14737;DHT22;7459;53.590;10.062;2022-09-09T20:16:25;16.70;99.90
14737;DHT22;7459;53.590;10.062;2022-09-09T20:18:55;16.70;99.90
14737;DHT22;7459;53.590;10.062;2022-09-09T20:21:24;16.70;99.90
14737;DHT22;7459;53.590;10.062;2022-09-09T20:23:51;16.70;99.90
14737;DHT22;7459;53.590;10.062;2022-09-09T20:26:20;16.70;99.90
14737;DHT22;7459;53.590;10.062;2022-09-09T20:28:48;16.60;99.90
14737;DHT22;7459;53.590;10.062;2022-09-09T20:31:20;16.60;99.90
14737;DHT22;7459;53.590;10.062;2022-09-09T20:33:48;16.60;99.90
14737;DHT22;7459;53.590;10.062;2022-09-09T20:36:28;16.60;99.90
14737;DHT22;7459;53.590;10.062;2022-09-09T20:39:07;16.60;99.90
14737;DHT22;7459;53.590;10.062;2022-09-09T20:41:35;16.60;99.90
14737;DHT22;7459;53.590;10.062;2022-09-09T20:44:14;16.60;99.90
14737;DHT22;7459;53.590;10.062;2022-09-09T20:46:46;16.60;99.90
14737;DHT22;7459;53.590;10.062;2022-09-09T20:49:14;16.60;99.90
14737;DHT22;7459;53.590;10.062;2022-09-09T20:51:42;16.60;99.90
14737;DHT22;7459;53.590;10.062;2022-09-09T20:54:20;16.60;99.90
14737;DHT22;7459;53.590;10.062;2022-09-09T20:56:51;16.60;99.90
14737;DHT22;7459;53.590;10.062;2022-09-09T20:59:20;16.60;99.90
14737;DHT22;7459;53.590;10.062;2022-09-09T21:01:48;16.50;99.90
14737;DHT22;7459;53.590;10.062;2022-09-09T21:04:15;16.50;99.90
14737;DHT22;7459;53.590;10.062;2022-09-09T21:06:42;16.50;99.90
14737;DHT22;7459;53.590;10.062;2022-09-09T21:09:08;16.50;99.90
14737;DHT22;7459;53.590;10.062;2022-09-09T21:11:34;16.60;99.90
14737;DHT22;7459;53.590;10.062;2022-09-09T21:14:00;16.50;99.90
14737;DHT22;7459;53.590;10.062;2022-09-09T21:16:26;16.50;99.90
14737;DHT22;7459;53.590;10.062;2022-09-09T21:18:52;16.50;99.90
14737;DHT22;7459;53.590;10.062;2022-09-09T21:21:18;16.60;99.90
14737;DHT22;7459;53.590;10.062;2022-09-09T21:23:45;16.60;99.90
14737;DHT22;7459;53.590;10.062;2022-09-09T21:26:11;16.50;99.90
14737;DHT22;7459;53.590;10.062;2022-09-09T21:28:37;16.50;99.90
14737;DHT22;7459;53.590;10.062;2022-09-09T21:31:04;16.50;99.90
14737;DHT22;7459;53.590;10.062;2022-09-09T21:33:31;16.50;99.90
14737;DHT22;7459;53.590;10.062;2022-09-09T21:36:04;16.50;99.90
14737;DHT22;7459;53.590;10.062;2022-09-09T21:38:30;16.50;99.90
14737;DHT22;7459;53.590;10.062;2022-09-09T21:41:02;16.50;99.90
14737;DHT22;7459;53.590;10.062;2022-09-09T21:43:32;16.50;99.90
14737;DHT22;7459;53.590;10.062;2022-09-09T21:45:58;16.50;99.90
14737;DHT22;7459;53.590;10.062;2022-09-09T21:48:24;16.50;99.90
14737;DHT22;7459;53.590;10.062;2022-09-09T21:50:52;16.50;99.90
14737;DHT22;7459;53.590;10.062;2022-09-09T21:53:19;16.40;99.90
14737;DHT22;7459;53.590;10.062;2022-09-09T21:55:46;16.50;99.90
14737;DHT22;7459;53.590;10.062;2022-09-09T21:58:16;16.50;99.90
14737;DHT22;7459;53.590;10.062;2022-09-09T22:00:45;16.50;99.90
14737;DHT22;7459;53.590;10.062;2022-09-09T22:03:14;16.50;99.90
14737;DHT22;7459;53.590;10.062;2022-09-09T22:05:42;16.60;99.90
14737;DHT22;7459;53.590;10.062;2022-09-09T22:08:10;16.60;99.90
14737;DHT22;7459;53.590;10.062;2022-09-09T22:10:39;16.60;99.90